CheckWX is a tool to help pilots better visualize weather data.  It is not intended as a substitute for an official pre-flight weather briefing.

04:15:36 UTC

KETH METAR
Wheaton Municipal Airport
Wheaton, Minnesota, USA
Current

23 mins ago

KETH 290353Z AUTO 00000KT 10SM M12/M14 A3016 RMK AO2
Observed
Jan-29 @ 03:53 UTC
Visibility
10 SM
Temperature
-12°C / 10°F
Dewpoint
-14°C / 7°F
Humidity
85%
Altimeter
30.16" Hg
Pressure
1021.32 hPa
Previous

43 mins ago

KETH 290333Z AUTO 00000KT 10SM M12/M14 A3016 RMK AO2
Observed
Jan-29 @ 03:33 UTC
Visibility
10 SM
Temperature
-12°C / 10°F
Dewpoint
-14°C / 7°F
Humidity
85%
Altimeter
30.16" Hg
Pressure
1021.32 hPa
Previous

1 hour ago

KETH 290313Z AUTO 00000KT 10SM M12/M13 A3016 RMK AO2
Observed
Jan-29 @ 03:13 UTC
Visibility
10 SM
Temperature
-12°C / 10°F
Dewpoint
-13°C / 9°F
Humidity
92%
Altimeter
30.16" Hg
Pressure
1021.32 hPa